Jack Guidry — WDF2422 — position and weather

sailwx.info

Track history (hours):
 
Tides and Currents Weather Stations Pressure Air Temp Water Temp Dewpoint Dewpoint Depression Visibility Wind Speed Wind Dir Waves Ship Positions

Jack Guidry

Owner: Enterprise Marine Services, LLC, San Antonio, TX. More information available from US FCC via Universal Licensing System and Coast Guard Vessel Documentation Center.

Last reported at 2014-Dec-21 15:24 UTC. Time now 2014-Dec-22 00:39 UTC.
Position N 29°56' W 089°60'.

Length 22 m; draft 2.5 m.

Type: Other ship. MMSI: 367003430.

Date/timePositionNaut miles runAvg speedWind from/ knotsBaromVisibWave heightAir tempDewpointWater temp
2014-Dec-21 15:24N 29°56' W 089°60'0 0.0
2014-Dec-20 00:17N 29°56' W 090°00'0 0.0
2014-Dec-19 22:32N 29°56' W 090°00'0 0.1
2014-Dec-19 16:22N 29°56' W 089°60'0 0.0
2014-Dec-18 19:25N 29°56' W 089°60'2 1.9
2014-Dec-18 18:28N 29°55' W 089°58'0 0.4
2014-Dec-18 17:33N 29°55' W 089°59'1 0.6
2014-Dec-18 16:31N 29°54' W 089°59'5 3.9
2014-Dec-18 15:19N 29°51' W 090°02'12 3.1
2014-Dec-18 11:28N 29°42' W 090°11'31 3.8
2014-Dec-18 03:13N 29°33' W 090°46'10 3.8
2014-Dec-18 00:31N 29°34' W 090°57'5 5.1
2014-Dec-17 23:32N 29°37' W 091°02'5 5.0
2014-Dec-17 22:33N 29°38' W 091°07'5 4.6
2014-Dec-17 21:33N 29°41' W 091°11'6 5.6
2014-Dec-17 20:33N 29°39' W 091°17'6 5.9
2014-Dec-17 19:31N 29°39' W 091°24'5 4.8
2014-Dec-17 18:22N 29°42' W 091°30'  
2014-Dec-14 16:12N 29°39' W 091°25'3 4.8
2014-Dec-14 15:34N 29°39' W 091°22'6 5.7
2014-Dec-14 14:34N 29°39' W 091°15'5 4.7
2014-Dec-14 13:34N 29°41' W 091°10'3 3.3
2014-Dec-14 12:34N 29°39' W 091°07'5 4.5
2014-Dec-14 11:33N 29°37' W 091°02'5 4.6
2014-Dec-14 10:33N 29°35' W 090°58'5 4.5
2014-Dec-14 09:33N 29°33' W 090°53'0 0.4
2014-Dec-14 08:34N 29°33' W 090°53'0 0.1
2014-Dec-14 07:34N 29°32' W 090°53'0 0.3
2014-Dec-14 06:33N 29°32' W 090°53'2 1.4
2014-Dec-14 05:21N 29°32' W 090°51'50 2.1
2014-Dec-13 05:32N 29°56' W 090°00'0 0.1
2014-Dec-13 04:29N 29°56' W 090°00'0 0.1
2014-Dec-13 03:25N 29°56' W 090°00'0 0.1
2014-Dec-13 02:32N 29°56' W 090°00'3 2.9
2014-Dec-13 01:33N 29°56' W 090°03'18 1.6
2014-Dec-12 14:18N 29°59' W 090°24'0 0.0
2014-Dec-12 13:31N 29°59' W 090°24'0 0.0
2014-Dec-12 12:15N 29°59' W 090°24'0 0.0
2014-Dec-12 09:10N 29°59' W 090°24'0 0.0
2014-Dec-12 08:11N 29°59' W 090°24'0 0.0
2014-Dec-12 06:07N 29°59' W 090°24'0 0.0
2014-Dec-12 05:22N 29°59' W 090°24'0 0.0
2014-Dec-12 04:26N 29°59' W 090°24'12 1.9
2014-Dec-11 22:04N 29°57' W 090°10'2 2.9
2014-Dec-11 21:23N 29°55' W 090°08'4 4.5
2014-Dec-11 20:33N 29°55' W 090°04'4 3.5
2014-Dec-11 19:33N 29°56' W 090°00'5 4.7
2014-Dec-11 18:24N 29°54' W 089°55'9 4.0
2014-Dec-11 16:14N 29°47' W 090°01'  
Track history (hours):
 
Tides and Currents Weather Stations Pressure Air Temp Water Temp Dewpoint Dewpoint Depression Visibility Wind Speed Wind Dir Waves Ship Positions

Jack Guidry

Owner: Enterprise Marine Services, LLC, San Antonio, TX. More information available from US FCC via Universal Licensing System and Coast Guard Vessel Documentation Center.

Last reported at 2014-Dec-21 15:24 UTC. Time now 2014-Dec-22 00:39 UTC.
Position N 29°56' W 089°60'.

Length 22 m; draft 2.5 m.

Type: Other ship. MMSI: 367003430.

Date/timePositionNaut miles runAvg speedWind from/ knotsBaromVisibWave heightAir tempDewpointWater temp
2014-Dec-21 15:24N 29°56' W 089°60'0 0.0
2014-Dec-20 00:17N 29°56' W 090°00'0 0.0
2014-Dec-19 22:32N 29°56' W 090°00'0 0.1
2014-Dec-19 16:22N 29°56' W 089°60'0 0.0
2014-Dec-18 19:25N 29°56' W 089°60'2 1.9
2014-Dec-18 18:28N 29°55' W 089°58'0 0.4
2014-Dec-18 17:33N 29°55' W 089°59'1 0.6
2014-Dec-18 16:31N 29°54' W 089°59'5 3.9
2014-Dec-18 15:19N 29°51' W 090°02'12 3.1
2014-Dec-18 11:28N 29°42' W 090°11'31 3.8
2014-Dec-18 03:13N 29°33' W 090°46'10 3.8
2014-Dec-18 00:31N 29°34' W 090°57'5 5.1
2014-Dec-17 23:32N 29°37' W 091°02'5 5.0
2014-Dec-17 22:33N 29°38' W 091°07'5 4.6
2014-Dec-17 21:33N 29°41' W 091°11'6 5.6
2014-Dec-17 20:33N 29°39' W 091°17'6 5.9
2014-Dec-17 19:31N 29°39' W 091°24'5 4.8
2014-Dec-17 18:22N 29°42' W 091°30'  
2014-Dec-14 16:12N 29°39' W 091°25'3 4.8
2014-Dec-14 15:34N 29°39' W 091°22'6 5.7
2014-Dec-14 14:34N 29°39' W 091°15'5 4.7
2014-Dec-14 13:34N 29°41' W 091°10'3 3.3
2014-Dec-14 12:34N 29°39' W 091°07'5 4.5
2014-Dec-14 11:33N 29°37' W 091°02'5 4.6
2014-Dec-14 10:33N 29°35' W 090°58'5 4.5
2014-Dec-14 09:33N 29°33' W 090°53'0 0.4
2014-Dec-14 08:34N 29°33' W 090°53'0 0.1
2014-Dec-14 07:34N 29°32' W 090°53'0 0.3
2014-Dec-14 06:33N 29°32' W 090°53'2 1.4
2014-Dec-14 05:21N 29°32' W 090°51'50 2.1
2014-Dec-13 05:32N 29°56' W 090°00'0 0.1
2014-Dec-13 04:29N 29°56' W 090°00'0 0.1
2014-Dec-13 03:25N 29°56' W 090°00'0 0.1
2014-Dec-13 02:32N 29°56' W 090°00'3 2.9
2014-Dec-13 01:33N 29°56' W 090°03'18 1.6
2014-Dec-12 14:18N 29°59' W 090°24'0 0.0
2014-Dec-12 13:31N 29°59' W 090°24'0 0.0
2014-Dec-12 12:15N 29°59' W 090°24'0 0.0
2014-Dec-12 09:10N 29°59' W 090°24'0 0.0
2014-Dec-12 08:11N 29°59' W 090°24'0 0.0
2014-Dec-12 06:07N 29°59' W 090°24'0 0.0
2014-Dec-12 05:22N 29°59' W 090°24'0 0.0
2014-Dec-12 04:26N 29°59' W 090°24'12 1.9
2014-Dec-11 22:04N 29°57' W 090°10'2 2.9
2014-Dec-11 21:23N 29°55' W 090°08'4 4.5
2014-Dec-11 20:33N 29°55' W 090°04'4 3.5
2014-Dec-11 19:33N 29°56' W 090°00'5 4.7
2014-Dec-11 18:24N 29°54' W 089°55'9 4.0
2014-Dec-11 16:14N 29°47' W 090°01'  

Dump ship's entire track history